createdAt,value
2016-12-20T00:03:32.565Z,1032.738
2016-12-20T00:09:20.169Z,1032.662
2016-12-20T00:15:07.756Z,1032.608
2016-12-20T00:18:01.564Z,1032.591
2016-12-20T00:20:55.434Z,1032.590
2016-12-20T00:32:30.691Z,1032.711
2016-12-20T00:35:24.180Z,1032.772
2016-12-20T00:41:11.825Z,1032.799
2016-12-20T00:46:59.211Z,1032.798
2016-12-20T00:49:52.856Z,1032.763
2016-12-20T00:52:46.643Z,1032.685
2016-12-20T00:55:40.242Z,1032.652
2016-12-20T00:58:33.880Z,1032.577
2016-12-20T01:10:08.640Z,1032.445
2016-12-20T01:13:02.418Z,1032.409
2016-12-20T01:21:43.573Z,1032.211
2016-12-20T01:27:30.831Z,1032.218
2016-12-20T01:30:24.510Z,1032.250
2016-12-20T01:33:18.265Z,1032.183
2016-12-20T01:36:11.921Z,1032.238
2016-12-20T01:41:59.237Z,1032.360
2016-12-20T01:44:52.855Z,1032.302
2016-12-20T01:47:46.473Z,1032.289
2016-12-20T01:50:40.142Z,1032.282
2016-12-20T01:53:33.751Z,1032.260
2016-12-20T01:56:28.439Z,1032.257
2016-12-20T01:59:20.989Z,1032.197
2016-12-20T02:08:01.902Z,1032.207
2016-12-20T02:10:55.616Z,1032.243
2016-12-20T02:13:49.204Z,1032.264
2016-12-20T02:19:36.704Z,1032.253
2016-12-20T02:22:30.401Z,1032.231
2016-12-20T02:25:24.059Z,1032.237
2016-12-20T02:28:17.740Z,1032.185
2016-12-20T02:31:11.500Z,1032.099
2016-12-20T02:34:05.157Z,1032.031
2016-12-20T02:36:58.800Z,1032.081
2016-12-20T02:39:52.402Z,1032.029
2016-12-20T02:42:45.934Z,1031.996
2016-12-20T02:45:39.683Z,1031.957
2016-12-20T02:51:26.980Z,1031.922
2016-12-20T03:00:08.832Z,1031.750
2016-12-20T03:03:01.607Z,1031.727
2016-12-20T03:05:55.220Z,1031.754
2016-12-20T03:08:48.824Z,1031.822
2016-12-20T03:11:42.526Z,1031.882
2016-12-20T03:14:36.208Z,1031.909
2016-12-20T03:17:29.894Z,1031.868
2016-12-20T03:20:23.615Z,1031.821
2016-12-20T03:23:17.277Z,1031.825
2016-12-20T03:26:10.766Z,1031.816
2016-12-20T03:29:04.504Z,1031.773
2016-12-20T03:31:58.145Z,1031.799
2016-12-20T03:34:51.786Z,1031.793
2016-12-20T03:40:40.084Z,1031.831
2016-12-20T03:49:20.128Z,1031.891
2016-12-20T03:52:13.840Z,1031.902
2016-12-20T03:55:07.574Z,1031.896
2016-12-20T03:58:01.093Z,1031.873
2016-12-20T04:03:48.493Z,1031.724
2016-12-20T04:06:42.203Z,1031.703
2016-12-20T04:09:35.785Z,1031.751
2016-12-20T04:12:29.777Z,1031.771
2016-12-20T04:15:23.469Z,1031.793
2016-12-20T04:18:17.054Z,1031.829
2016-12-20T04:21:10.702Z,1031.797
2016-12-20T04:24:04.460Z,1031.726
2016-12-20T04:26:58.029Z,1031.702
2016-12-20T04:29:51.736Z,1031.672
2016-12-20T04:32:45.338Z,1031.658
2016-12-20T04:35:38.985Z,1031.718
2016-12-20T04:38:32.719Z,1031.679
2016-12-20T04:41:26.263Z,1031.659
2016-12-20T04:44:19.984Z,1031.663
2016-12-20T04:47:13.704Z,1031.655
2016-12-20T04:50:07.863Z,1031.641
2016-12-20T04:53:01.466Z,1031.607
2016-12-20T04:55:55.077Z,1031.587
2016-12-20T05:01:42.321Z,1031.618
2016-12-20T05:04:35.909Z,1031.571
2016-12-20T05:07:29.519Z,1031.587
2016-12-20T05:10:23.244Z,1031.547
2016-12-20T05:13:17.297Z,1031.506
2016-12-20T05:16:11.040Z,1031.522
2016-12-20T05:19:04.608Z,1031.534
2016-12-20T05:21:58.352Z,1031.556
2016-12-20T05:24:52.080Z,1031.504
2016-12-20T05:27:45.744Z,1031.463
2016-12-20T05:30:39.463Z,1031.418
2016-12-20T05:33:33.282Z,1031.402
2016-12-20T05:36:26.997Z,1031.421
2016-12-20T05:39:20.650Z,1031.404
2016-12-20T05:42:14.253Z,1031.404
2016-12-20T05:53:49.379Z,1031.271
2016-12-20T05:59:37.496Z,1031.258
2016-12-20T06:05:23.572Z,1031.316
2016-12-20T06:08:17.113Z,1031.326
2016-12-20T06:11:10.682Z,1031.337
2016-12-20T06:14:04.280Z,1031.362
2016-12-20T06:16:57.775Z,1031.435
2016-12-20T06:19:51.404Z,1031.449
2016-12-20T06:28:32.199Z,1031.419
2016-12-20T06:34:19.277Z,1031.526
2016-12-20T06:40:06.486Z,1031.450
2016-12-20T06:43:00.168Z,1031.466
2016-12-20T06:45:53.692Z,1031.463
2016-12-20T06:48:47.233Z,1031.523
2016-12-20T06:51:40.953Z,1031.524
2016-12-20T06:54:34.684Z,1031.571
2016-12-20T06:57:28.340Z,1031.578
2016-12-20T07:00:21.995Z,1031.562
2016-12-20T07:03:15.717Z,1031.612
2016-12-20T07:11:56.861Z,1031.671
2016-12-20T07:14:50.488Z,1031.740
2016-12-20T07:20:37.895Z,1031.731
2016-12-20T07:23:31.462Z,1031.735
2016-12-20T07:26:24.964Z,1031.701
2016-12-20T07:29:18.489Z,1031.781
2016-12-20T07:32:11.989Z,1031.882
2016-12-20T07:35:05.427Z,1031.890
2016-12-20T07:49:32.869Z,1031.949
2016-12-20T07:55:19.707Z,1031.936
2016-12-20T07:58:13.303Z,1031.983
2016-12-20T08:01:06.906Z,1032.041
2016-12-20T08:04:00.407Z,1032.037
2016-12-20T08:06:53.891Z,1032.089
2016-12-20T08:09:47.451Z,1032.127
2016-12-20T08:12:41.007Z,1032.056
2016-12-20T08:18:27.951Z,1032.018
2016-12-20T08:24:15.039Z,1032.096
2016-12-20T08:27:08.582Z,1032.065
2016-12-20T08:38:43.652Z,1031.999
2016-12-20T08:41:37.063Z,1031.980
2016-12-20T08:44:30.702Z,1031.933
2016-12-20T08:47:24.262Z,1031.903
2016-12-20T08:50:17.843Z,1031.861
2016-12-20T08:58:58.444Z,1031.862
2016-12-20T09:01:51.952Z,1031.862
2016-12-20T09:13:25.943Z,1031.944
2016-12-20T09:16:19.487Z,1031.837
2016-12-20T09:19:12.982Z,1031.718
2016-12-20T09:22:06.551Z,1031.702
2016-12-20T09:27:53.664Z,1031.665
2016-12-20T09:33:40.804Z,1031.612
2016-12-20T09:36:34.363Z,1031.579
2016-12-20T09:39:27.768Z,1031.583
2016-12-20T09:48:09.172Z,1031.682
2016-12-20T09:51:02.860Z,1031.667
2016-12-20T09:53:56.413Z,1031.664
2016-12-20T10:02:37.653Z,1031.589
2016-12-20T10:05:31.171Z,1031.541
2016-12-20T10:08:24.851Z,1031.598
2016-12-20T10:11:18.430Z,1031.592
2016-12-20T10:17:06.525Z,1031.564
2016-12-20T10:22:52.901Z,1031.333
2016-12-20T10:25:46.598Z,1031.307
2016-12-20T10:28:40.207Z,1031.286
2016-12-20T10:31:33.784Z,1031.247
2016-12-20T10:34:27.333Z,1031.264
2016-12-20T10:37:20.955Z,1031.239
2016-12-20T10:40:14.425Z,1031.247
2016-12-20T10:43:08.001Z,1031.249
2016-12-20T10:48:55.167Z,1031.267
2016-12-20T10:51:49.793Z,1031.273
2016-12-20T10:54:42.403Z,1031.177
2016-12-20T10:57:36.056Z,1031.136
2016-12-20T11:00:29.600Z,1031.204
2016-12-20T11:06:16.766Z,1031.109
2016-12-20T11:14:57.775Z,1031.009
2016-12-20T11:17:51.660Z,1030.914
2016-12-20T11:20:45.238Z,1030.935
2016-12-20T11:23:38.887Z,1030.830
2016-12-20T11:26:32.446Z,1030.798
2016-12-20T11:29:26.052Z,1030.765
2016-12-20T11:32:19.627Z,1030.693
2016-12-20T11:35:13.215Z,1030.685
2016-12-20T11:43:54.110Z,1030.684
2016-12-20T11:49:41.304Z,1030.674
2016-12-20T11:52:34.897Z,1030.619
2016-12-20T11:55:28.564Z,1030.610
2016-12-20T11:58:22.080Z,1030.555
2016-12-20T12:01:15.725Z,1030.468
2016-12-20T12:04:09.377Z,1030.418
2016-12-20T12:07:02.992Z,1030.363
2016-12-20T12:09:56.583Z,1030.348
2016-12-20T12:12:50.149Z,1030.362
2016-12-20T12:15:43.643Z,1030.260
2016-12-20T12:18:37.392Z,1030.196
2016-12-20T12:21:30.899Z,1030.152
2016-12-20T12:27:18.255Z,1030.078
2016-12-20T12:30:11.865Z,1030.034
2016-12-20T12:33:05.434Z,1030.024
2016-12-20T12:35:58.916Z,1029.975
2016-12-20T12:38:52.541Z,1029.989
2016-12-20T12:41:46.083Z,1030.016
2016-12-20T12:44:39.663Z,1030.014
2016-12-20T12:47:33.262Z,1030.043
2016-12-20T12:53:20.399Z,1030.018
2016-12-20T13:02:01.288Z,1029.939
2016-12-20T13:13:36.172Z,1029.782
2016-12-20T13:16:29.899Z,1029.756
2016-12-20T13:19:23.498Z,1029.771
2016-12-20T13:22:17.068Z,1029.769
2016-12-20T13:25:10.712Z,1029.706
2016-12-20T13:30:58.121Z,1029.707
2016-12-20T13:33:51.612Z,1029.747
2016-12-20T13:36:45.231Z,1029.692
2016-12-20T13:42:32.293Z,1029.581
2016-12-20T13:45:25.932Z,1029.532
2016-12-20T13:48:19.522Z,1029.479
2016-12-20T13:57:00.944Z,1029.503
2016-12-20T13:59:54.565Z,1029.585
2016-12-20T14:02:48.201Z,1029.570
2016-12-20T14:08:35.324Z,1029.609
2016-12-20T14:11:29.136Z,1029.640
2016-12-20T14:20:09.985Z,1029.575
2016-12-20T14:25:57.028Z,1029.575
2016-12-20T14:28:50.668Z,1029.562
2016-12-20T14:40:25.059Z,1029.460
2016-12-20T14:43:18.702Z,1029.459
2016-12-20T14:49:05.781Z,1029.401
2016-12-20T14:54:52.955Z,1029.391
2016-12-20T14:57:46.456Z,1029.357
2016-12-20T15:00:40.056Z,1029.365
2016-12-20T15:03:33.623Z,1029.412
2016-12-20T15:06:27.170Z,1029.406
2016-12-20T15:15:07.817Z,1029.276
2016-12-20T15:18:01.388Z,1029.219
2016-12-20T15:23:48.609Z,1029.132
2016-12-20T15:26:42.274Z,1029.168
2016-12-20T15:29:35.995Z,1029.183
2016-12-20T15:32:29.347Z,1029.206
2016-12-20T15:35:22.951Z,1029.178
2016-12-20T15:44:03.841Z,1029.098
2016-12-20T15:46:57.395Z,1029.139
2016-12-20T15:52:44.577Z,1029.109
2016-12-20T15:55:38.133Z,1029.139
2016-12-20T15:58:31.671Z,1029.133
2016-12-20T16:01:25.250Z,1029.075
2016-12-20T16:04:18.784Z,1028.991
2016-12-20T16:12:59.463Z,1028.916
2016-12-20T16:15:53.056Z,1028.879
2016-12-20T16:18:46.642Z,1028.832
2016-12-20T16:27:27.608Z,1028.816
2016-12-20T16:33:14.706Z,1028.832
2016-12-20T16:44:49.528Z,1028.608
2016-12-20T16:47:43.154Z,1028.545
2016-12-20T16:50:36.748Z,1028.548
2016-12-20T16:53:30.254Z,1028.614
2016-12-20T16:59:17.357Z,1028.597
2016-12-20T17:02:10.983Z,1028.570
2016-12-20T17:05:04.700Z,1028.568
2016-12-20T17:07:58.291Z,1028.555
2016-12-20T17:10:51.958Z,1028.544
2016-12-20T17:16:39.016Z,1028.512
2016-12-20T17:22:26.137Z,1028.484
2016-12-20T17:28:13.868Z,1028.408
2016-12-20T17:31:07.431Z,1028.293
2016-12-20T17:36:54.797Z,1028.199
2016-12-20T17:42:42.024Z,1028.212
2016-12-20T17:45:35.686Z,1028.274
2016-12-20T17:51:22.612Z,1028.317
2016-12-20T17:54:16.159Z,1028.299
2016-12-20T18:00:03.399Z,1028.246
2016-12-20T18:02:57.015Z,1028.239
2016-12-20T18:05:50.740Z,1028.190
2016-12-20T18:11:37.852Z,1028.189
2016-12-20T18:14:31.425Z,1028.217
2016-12-20T18:17:25.060Z,1028.262
2016-12-20T18:20:18.603Z,1028.219
2016-12-20T18:23:12.234Z,1028.226
2016-12-20T18:26:05.825Z,1028.233
2016-12-20T18:28:59.365Z,1028.234
2016-12-20T18:31:52.941Z,1028.245
2016-12-20T18:34:46.610Z,1028.231
2016-12-20T18:40:33.937Z,1028.194
2016-12-20T18:43:27.470Z,1028.216
2016-12-20T18:46:20.963Z,1028.132
2016-12-20T18:49:14.439Z,1028.157
2016-12-20T18:52:07.942Z,1028.131
2016-12-20T18:55:01.487Z,1028.242
2016-12-20T18:57:55.091Z,1028.197
2016-12-20T19:00:48.642Z,1028.250
2016-12-20T19:03:42.268Z,1028.265
2016-12-20T19:06:35.865Z,1028.243
2016-12-20T19:15:16.892Z,1028.237
2016-12-20T19:18:10.455Z,1028.153
2016-12-20T19:21:03.952Z,1028.145
2016-12-20T19:23:57.604Z,1028.165
2016-12-20T19:29:44.861Z,1028.150
2016-12-20T19:32:38.372Z,1028.171
2016-12-20T19:35:31.938Z,1028.176
2016-12-20T19:41:19.058Z,1028.239
2016-12-20T19:44:12.518Z,1028.255
2016-12-20T19:47:06.152Z,1028.254
2016-12-20T19:49:59.798Z,1028.273
2016-12-20T20:01:34.048Z,1028.237
2016-12-20T20:04:27.563Z,1028.215
2016-12-20T20:07:21.104Z,1028.198
2016-12-20T20:10:15.088Z,1028.216
2016-12-20T20:13:08.669Z,1028.227
2016-12-20T20:16:02.199Z,1028.254
2016-12-20T20:18:55.846Z,1028.269
2016-12-20T20:21:49.451Z,1028.269
2016-12-20T20:24:43.054Z,1028.263
2016-12-20T20:27:36.612Z,1028.194
2016-12-20T20:33:23.622Z,1028.264
2016-12-20T20:36:17.136Z,1028.229
2016-12-20T20:42:04.319Z,1028.171
2016-12-20T20:56:31.963Z,1028.017
2016-12-20T20:59:25.520Z,1028.058
2016-12-20T21:02:18.960Z,1028.071
2016-12-20T21:08:06.135Z,1028.077
2016-12-20T21:10:59.612Z,1028.113
2016-12-20T21:13:53.286Z,1028.038
2016-12-20T21:16:46.825Z,1027.971
2016-12-20T21:22:34.059Z,1027.931
2016-12-20T21:28:21.226Z,1027.880
2016-12-20T21:31:14.726Z,1027.809
2016-12-20T21:34:08.197Z,1027.827
2016-12-20T21:37:01.748Z,1027.854
2016-12-20T21:39:55.371Z,1027.825
2016-12-20T21:42:48.797Z,1027.776
2016-12-20T21:48:35.859Z,1027.701
2016-12-20T21:51:29.489Z,1027.660
2016-12-20T21:54:23.036Z,1027.566
2016-12-20T21:57:16.664Z,1027.503
2016-12-20T22:03:03.879Z,1027.454
2016-12-20T22:05:57.428Z,1027.436
2016-12-20T22:08:50.990Z,1027.371
2016-12-20T22:11:44.537Z,1027.334
2016-12-20T22:14:37.979Z,1027.293
2016-12-20T22:23:18.539Z,1027.160
2016-12-20T22:29:05.661Z,1027.217
2016-12-20T22:31:59.157Z,1027.270
2016-12-20T22:34:52.702Z,1027.295
2016-12-20T22:37:46.295Z,1027.333
2016-12-20T22:40:39.858Z,1027.330
2016-12-20T22:43:33.366Z,1027.378
2016-12-20T22:49:20.874Z,1027.411
2016-12-20T22:55:07.874Z,1027.398
2016-12-20T22:58:01.459Z,1027.369
2016-12-20T23:00:55.010Z,1027.330
2016-12-20T23:03:48.532Z,1027.289
2016-12-20T23:09:35.558Z,1027.384
2016-12-20T23:21:09.818Z,1027.473
2016-12-20T23:24:03.423Z,1027.475
2016-12-20T23:26:57.060Z,1027.492
2016-12-20T23:29:50.621Z,1027.516
2016-12-20T23:32:44.101Z,1027.509
2016-12-20T23:35:37.657Z,1027.584
2016-12-20T23:38:31.128Z,1027.593
2016-12-20T23:41:24.678Z,1027.600
2016-12-20T23:44:18.313Z,1027.666
2016-12-20T23:47:11.901Z,1027.660
2016-12-20T23:50:06.081Z,1027.698
2016-12-20T23:55:53.361Z,1027.667
2016-12-20T23:58:46.946Z,1027.684
